Aeroporto :
LOGIN :

Iscrizione | Disclaimer

   EN    FR    IT 

 










Sommario :    VFR   VFR Marginale   IFR   IFR Intensivo   IFR Molto Intensivo
Visibilità : 
Base nubi : 
>= 8 km
>= 3000ft
5 / 8 km
1000 / 3000 ft
1500m / 5 km
500 / 1000 ft
800 / 1500m
200 / 500 ft
< 800m
< 200 ft
Simboli :   Temporali  Nebbia  Neve Forte  Precipitazioni Forti  Vento > 20 kt
SIGMETs :   Varie  Temporali  Ghiacco  Turbolenza  Onda orograficha  Ceneri Vulcaniche






- Altitudine del aeroporto : 935 ft


EBFS - Florennes

METARs OBSOLETI :
  • 180343Z AUTO 08004KT 9999 FEW070/// BKN085/// 14/13 Q1013 BLU
  • 180255Z AUTO 10003KT 9999 FEW070/// SCT160/// BKN220/// 14/13 Q1013 BLU
  • 180225Z AUTO 08004KT 9999 FEW090/// OVC220/// 13/12 Q1013 BLU
  • 180155Z AUTO 08004KT 9999 SCT085/// BKN160/// BKN220/// 13/12 Q1013 BLU

TAF TAF EBFS
Valido dal 17 a 19 ore il 18 a 07 ore UTC


171541Z 1719/1807 32005KT 9999 FEW040 BKN080
BECMG 1719/1721 06004KT
BECMG 1721/1723 15003KT
TEMPO 1801/1807 3000 BR
PROB30
TEMPO 1803/1807 VRB01KT 0800 FG



MetMap, La meteo Aeronautica in un colpo d'occhio ! - Copyright ORBIFLY Dicembre 2007 - Disclaimer

ORBIFLY MET'MAP TEAM :

Programmazione e sviluppo : Alexandra Zaïnal
Concezione : Baudouin d'Aumeries
Supporto tecnico e logistico : Manuel Goepfert
Aiuto : Marc-Olivier Méhu
Aiuto per la traduzione : Arnaldo La Scala




FONTI E CREDITI :

   NOAA